sensor_id;sensor_type;location;lat;lon;timestamp;pressure;altitude;pressure_sealevel;temperature
19568;BMP280;9930;49.240;8.548;2023-05-23T00:02:01;100290.31;;;24.37
19568;BMP280;9930;49.240;8.548;2023-05-23T00:04:26;100291.22;;;24.36
19568;BMP280;9930;49.240;8.548;2023-05-23T00:06:52;100295.47;;;24.40
19568;BMP280;9930;49.240;8.548;2023-05-23T00:09:18;100302.41;;;24.41
19568;BMP280;9930;49.240;8.548;2023-05-23T00:11:46;100291.25;;;24.34
19568;BMP280;9930;49.240;8.548;2023-05-23T00:14:14;100312.00;;;24.39
19568;BMP280;9930;49.240;8.548;2023-05-23T00:16:44;100308.56;;;24.37
19568;BMP280;9930;49.240;8.548;2023-05-23T00:19:11;100306.88;;;24.34
19568;BMP280;9930;49.240;8.548;2023-05-23T00:21:41;100313.03;;;24.32
19568;BMP280;9930;49.240;8.548;2023-05-23T00:24:12;100314.81;;;24.30
19568;BMP280;9930;49.240;8.548;2023-05-23T00:26:38;100318.31;;;24.29
19568;BMP280;9930;49.240;8.548;2023-05-23T00:29:04;100318.31;;;24.27
19568;BMP280;9930;49.240;8.548;2023-05-23T00:31:30;100306.31;;;24.18
19568;BMP280;9930;49.240;8.548;2023-05-23T00:33:56;100312.31;;;24.22
19568;BMP280;9930;49.240;8.548;2023-05-23T00:36:22;100314.94;;;24.20
19568;BMP280;9930;49.240;8.548;2023-05-23T00:38:49;100312.38;;;24.19
19568;BMP280;9930;49.240;8.548;2023-05-23T00:41:15;100320.22;;;24.17
19568;BMP280;9930;49.240;8.548;2023-05-23T00:43:45;100323.78;;;24.13
19568;BMP280;9930;49.240;8.548;2023-05-23T00:46:13;100312.56;;;24.10
19568;BMP280;9930;49.240;8.548;2023-05-23T00:48:44;100317.78;;;24.10
19568;BMP280;9930;49.240;8.548;2023-05-23T00:51:15;100317.91;;;24.02
19568;BMP280;9930;49.240;8.548;2023-05-23T00:53:49;100317.06;;;24.02
19568;BMP280;9930;49.240;8.548;2023-05-23T00:56:17;100316.19;;;24.01
19568;BMP280;9930;49.240;8.548;2023-05-23T00:58:48;100309.34;;;23.96
19568;BMP280;9930;49.240;8.548;2023-05-23T01:01:16;100306.88;;;23.89
19568;BMP280;9930;49.240;8.548;2023-05-23T01:03:45;100312.88;;;23.93
19568;BMP280;9930;49.240;8.548;2023-05-23T01:06:15;100319.00;;;23.90
19568;BMP280;9930;49.240;8.548;2023-05-23T01:08:43;100326.00;;;23.87
19568;BMP280;9930;49.240;8.548;2023-05-23T01:11:32;100322.59;;;23.83
19568;BMP280;9930;49.240;8.548;2023-05-23T01:14:10;100329.63;;;23.80
19568;BMP280;9930;49.240;8.548;2023-05-23T01:17:06;100315.81;;;23.75
19568;BMP280;9930;49.240;8.548;2023-05-23T01:19:58;100317.66;;;23.70
19568;BMP280;9930;49.240;8.548;2023-05-23T01:28:47;100312.72;;;23.51
19568;BMP280;9930;49.240;8.548;2023-05-23T01:31:16;100332.63;;;23.57
19568;BMP280;9930;49.240;8.548;2023-05-23T01:33:50;100323.16;;;23.50
19568;BMP280;9930;49.240;8.548;2023-05-23T01:36:20;100318.88;;;23.47
19568;BMP280;9930;49.240;8.548;2023-05-23T01:38:48;100333.56;;;23.51
19568;BMP280;9930;49.240;8.548;2023-05-23T01:41:16;100325.00;;;23.43
19568;BMP280;9930;49.240;8.548;2023-05-23T01:43:42;100342.28;;;23.47
19568;BMP280;9930;49.240;8.548;2023-05-23T01:46:11;100335.38;;;23.46
19568;BMP280;9930;49.240;8.548;2023-05-23T01:48:40;100329.41;;;23.40
19568;BMP280;9930;49.240;8.548;2023-05-23T01:51:09;100342.34;;;23.44
19568;BMP280;9930;49.240;8.548;2023-05-23T01:53:35;100346.69;;;23.44
19568;BMP280;9930;49.240;8.548;2023-05-23T01:56:07;100336.41;;;23.36
19568;BMP280;9930;49.240;8.548;2023-05-23T01:58:33;100347.69;;;23.37
19568;BMP280;9930;49.240;8.548;2023-05-23T02:01:00;100333.91;;;23.30
19568;BMP280;9930;49.240;8.548;2023-05-23T02:03:30;100341.72;;;23.30
19568;BMP280;9930;49.240;8.548;2023-05-23T02:05:55;100359.03;;;23.31
19568;BMP280;9930;49.240;8.548;2023-05-23T02:08:24;100347.00;;;23.24
19568;BMP280;9930;49.240;8.548;2023-05-23T02:10:49;100362.53;;;23.30
19568;BMP280;9930;49.240;8.548;2023-05-23T02:13:15;100341.91;;;23.18
19568;BMP280;9930;49.240;8.548;2023-05-23T02:15:41;100349.63;;;23.22
19568;BMP280;9930;49.240;8.548;2023-05-23T02:18:06;100352.22;;;23.22
19568;BMP280;9930;49.240;8.548;2023-05-23T02:20:32;100355.75;;;23.18
19568;BMP280;9930;49.240;8.548;2023-05-23T02:23:00;100348.84;;;23.17
19568;BMP280;9930;49.240;8.548;2023-05-23T02:25:29;100353.19;;;23.17
19568;BMP280;9930;49.240;8.548;2023-05-23T02:27:56;100352.38;;;23.13
19568;BMP280;9930;49.240;8.548;2023-05-23T02:30:22;100343.75;;;23.10
19568;BMP280;9930;49.240;8.548;2023-05-23T02:32:48;100364.50;;;23.14
19568;BMP280;9930;49.240;8.548;2023-05-23T02:35:16;100355.91;;;23.08
19568;BMP280;9930;49.240;8.548;2023-05-23T02:37:42;100359.34;;;23.10
19568;BMP280;9930;49.240;8.548;2023-05-23T02:40:08;100368.03;;;23.09
19568;BMP280;9930;49.240;8.548;2023-05-23T02:42:39;100367.22;;;23.07
19568;BMP280;9930;49.240;8.548;2023-05-23T02:45:07;100359.44;;;23.04
19568;BMP280;9930;49.240;8.548;2023-05-23T02:47:35;100364.66;;;23.04
19568;BMP280;9930;49.240;8.548;2023-05-23T02:50:01;100363.03;;;22.95
19568;BMP280;9930;49.240;8.548;2023-05-23T02:52:27;100369.91;;;23.01
19568;BMP280;9930;49.240;8.548;2023-05-23T02:54:52;100377.72;;;22.99
19568;BMP280;9930;49.240;8.548;2023-05-23T02:57:20;100376.91;;;22.96
19568;BMP280;9930;49.240;8.548;2023-05-23T02:59:48;100366.59;;;22.88
19568;BMP280;9930;49.240;8.548;2023-05-23T03:02:18;100374.34;;;22.92
19568;BMP280;9930;49.240;8.548;2023-05-23T03:04:44;100372.66;;;22.88
19568;BMP280;9930;49.240;8.548;2023-05-23T03:07:12;100372.69;;;22.87
19568;BMP280;9930;49.240;8.548;2023-05-23T03:09:39;100365.00;;;22.79
19568;BMP280;9930;49.240;8.548;2023-05-23T03:12:05;100374.50;;;22.79
19568;BMP280;9930;49.240;8.548;2023-05-23T03:14:33;100382.31;;;22.80
19568;BMP280;9930;49.240;8.548;2023-05-23T03:17:04;100374.53;;;22.76
19568;BMP280;9930;49.240;8.548;2023-05-23T03:19:32;100370.25;;;22.72
19568;BMP280;9930;49.240;8.548;2023-05-23T03:22:01;100386.63;;;22.78
19568;BMP280;9930;49.240;8.548;2023-05-23T03:24:29;100391.91;;;22.74
19568;BMP280;9930;49.240;8.548;2023-05-23T03:26:56;100392.72;;;22.80
19568;BMP280;9930;49.240;8.548;2023-05-23T03:29:24;100392.75;;;22.76
19568;BMP280;9930;49.240;8.548;2023-05-23T03:31:50;100389.25;;;22.77
19568;BMP280;9930;49.240;8.548;2023-05-23T03:34:16;100388.41;;;22.75
19568;BMP280;9930;49.240;8.548;2023-05-23T03:36:42;100391.03;;;22.73
19568;BMP280;9930;49.240;8.548;2023-05-23T03:39:12;100394.47;;;22.75
19568;BMP280;9930;49.240;8.548;2023-05-23T03:41:40;100391.94;;;22.69
19568;BMP280;9930;49.240;8.548;2023-05-23T03:44:08;100402.28;;;22.74
19568;BMP280;9930;49.240;8.548;2023-05-23T03:46:34;100400.56;;;22.74
19568;BMP280;9930;49.240;8.548;2023-05-23T03:49:01;100400.56;;;22.73
19568;BMP280;9930;49.240;8.548;2023-05-23T03:51:27;100395.41;;;22.71
19568;BMP280;9930;49.240;8.548;2023-05-23T03:54:01;100404.00;;;22.79
19568;BMP280;9930;49.240;8.548;2023-05-23T03:56:28;100405.69;;;22.79
19568;BMP280;9930;49.240;8.548;2023-05-23T03:59:00;100412.66;;;22.80
19568;BMP280;9930;49.240;8.548;2023-05-23T04:01:27;100410.06;;;22.80
19568;BMP280;9930;49.240;8.548;2023-05-23T04:03:55;100411.78;;;22.78
19568;BMP280;9930;49.240;8.548;2023-05-23T04:06:22;100410.91;;;22.77
19568;BMP280;9930;49.240;8.548;2023-05-23T04:08:52;100414.38;;;22.78
19568;BMP280;9930;49.240;8.548;2023-05-23T04:11:23;100416.97;;;22.78
19568;BMP280;9930;49.240;8.548;2023-05-23T04:13:49;100418.69;;;22.79
19568;BMP280;9930;49.240;8.548;2023-05-23T04:16:22;100426.53;;;22.80
19568;BMP280;9930;49.240;8.548;2023-05-23T04:18:53;100414.44;;;22.73
19568;BMP280;9930;49.240;8.548;2023-05-23T04:21:25;100422.19;;;22.78
19568;BMP280;9930;49.240;8.548;2023-05-23T04:23:56;100432.59;;;22.76
19568;BMP280;9930;49.240;8.548;2023-05-23T04:26:33;100424.84;;;22.73
19568;BMP280;9930;49.240;8.548;2023-05-23T04:29:03;100424.84;;;22.73
19568;BMP280;9930;49.240;8.548;2023-05-23T04:31:33;100424.81;;;22.75
19568;BMP280;9930;49.240;8.548;2023-05-23T04:34:04;100435.19;;;22.79
19568;BMP280;9930;49.240;8.548;2023-05-23T04:36:31;100432.59;;;22.79
19568;BMP280;9930;49.240;8.548;2023-05-23T04:38:57;100431.72;;;22.80
19568;BMP280;9930;49.240;8.548;2023-05-23T04:41:33;100424.78;;;22.78
19568;BMP280;9930;49.240;8.548;2023-05-23T04:44:05;100432.50;;;22.87
19568;BMP280;9930;49.240;8.548;2023-05-23T04:46:34;100443.78;;;22.87
19568;BMP280;9930;49.240;8.548;2023-05-23T04:49:05;100431.66;;;22.86
19568;BMP280;9930;49.240;8.548;2023-05-23T04:51:34;100447.97;;;22.98
19568;BMP280;9930;49.240;8.548;2023-05-23T04:54:05;100453.97;;;23.03
19568;BMP280;9930;49.240;8.548;2023-05-23T04:56:35;100447.81;;;23.10
19568;BMP280;9930;49.240;8.548;2023-05-23T04:59:03;100446.97;;;23.08
19568;BMP280;9930;49.240;8.548;2023-05-23T05:01:31;100451.25;;;23.13
19568;BMP280;9930;49.240;8.548;2023-05-23T05:04:00;100457.31;;;23.14
19568;BMP280;9930;49.240;8.548;2023-05-23T05:06:31;100457.28;;;23.15
19568;BMP280;9930;49.240;8.548;2023-05-23T05:09:01;100456.50;;;23.10
19568;BMP280;9930;49.240;8.548;2023-05-23T05:11:27;100474.63;;;23.16
19568;BMP280;9930;49.240;8.548;2023-05-23T05:13:53;100465.88;;;23.20
19568;BMP280;9930;49.240;8.548;2023-05-23T05:16:22;100464.00;;;23.32
19568;BMP280;9930;49.240;8.548;2023-05-23T05:18:48;100461.16;;;23.48
19568;BMP280;9930;49.240;8.548;2023-05-23T05:21:32;100455.75;;;23.64
19568;BMP280;9930;49.240;8.548;2023-05-23T05:24:01;100458.88;;;23.87
19568;BMP280;9930;49.240;8.548;2023-05-23T05:26:33;100471.66;;;24.02
19568;BMP280;9930;49.240;8.548;2023-05-23T05:29:03;100471.47;;;24.13
19568;BMP280;9930;49.240;8.548;2023-05-23T05:31:30;100475.63;;;24.23
19568;BMP280;9930;49.240;8.548;2023-05-23T05:33:57;100488.38;;;24.41
19568;BMP280;9930;49.240;8.548;2023-05-23T05:36:23;100481.13;;;24.57
19568;BMP280;9930;49.240;8.548;2023-05-23T05:38:51;100481.63;;;24.76
19568;BMP280;9930;49.240;8.548;2023-05-23T05:41:17;100482.31;;;24.85
19568;BMP280;9930;49.240;8.548;2023-05-23T05:43:43;100484.75;;;24.95
19568;BMP280;9930;49.240;8.548;2023-05-23T05:46:12;100497.59;;;25.05
19568;BMP280;9930;49.240;8.548;2023-05-23T05:48:37;100486.25;;;25.08
19568;BMP280;9930;49.240;8.548;2023-05-23T05:51:03;100501.69;;;25.18
19568;BMP280;9930;49.240;8.548;2023-05-23T05:53:33;100508.41;;;25.30
19568;BMP280;9930;49.240;8.548;2023-05-23T05:56:02;100499.75;;;25.27
19568;BMP280;9930;49.240;8.548;2023-05-23T05:58:33;100512.16;;;25.17
19568;BMP280;9930;49.240;8.548;2023-05-23T06:01:03;100510.78;;;24.99
19568;BMP280;9930;49.240;8.548;2023-05-23T06:03:31;100523.19;;;24.85
19568;BMP280;9930;49.240;8.548;2023-05-23T06:06:03;100512.41;;;24.59
19568;BMP280;9930;49.240;8.548;2023-05-23T06:08:30;100528.22;;;24.48
19568;BMP280;9930;49.240;8.548;2023-05-23T06:10:56;100533.69;;;24.34
19568;BMP280;9930;49.240;8.548;2023-05-23T06:13:24;100528.72;;;24.17
19568;BMP280;9930;49.240;8.548;2023-05-23T06:15:49;100525.53;;;24.00
19568;BMP280;9930;49.240;8.548;2023-05-23T06:18:17;100537.81;;;23.92
19568;BMP280;9930;49.240;8.548;2023-05-23T06:20:45;100537.94;;;23.83
19568;BMP280;9930;49.240;8.548;2023-05-23T06:23:13;100544.19;;;23.71
19568;BMP280;9930;49.240;8.548;2023-05-23T06:25:41;100561.75;;;23.57
19568;BMP280;9930;49.240;8.548;2023-05-23T06:28:09;100550.56;;;23.47
19568;BMP280;9930;49.240;8.548;2023-05-23T06:30:37;100547.09;;;23.47
19568;BMP280;9930;49.240;8.548;2023-05-23T06:33:03;100547.97;;;23.47
19568;BMP280;9930;49.240;8.548;2023-05-23T06:35:30;100553.97;;;23.54
19568;BMP280;9930;49.240;8.548;2023-05-23T06:38:00;100549.66;;;23.50
19568;BMP280;9930;49.240;8.548;2023-05-23T06:40:28;100558.25;;;23.58
19568;BMP280;9930;49.240;8.548;2023-05-23T06:42:53;100565.13;;;23.64
19568;BMP280;9930;49.240;8.548;2023-05-23T06:45:21;100550.38;;;23.63
19568;BMP280;9930;49.240;8.548;2023-05-23T06:47:46;100554.66;;;23.67
19568;BMP280;9930;49.240;8.548;2023-05-23T06:50:13;100558.06;;;23.73
19568;BMP280;9930;49.240;8.548;2023-05-23T06:52:39;100565.84;;;23.75
19568;BMP280;9930;49.240;8.548;2023-05-23T06:55:08;100567.56;;;23.76
19568;BMP280;9930;49.240;8.548;2023-05-23T06:57:36;100572.72;;;23.80
19568;BMP280;9930;49.240;8.548;2023-05-23T07:00:07;100572.72;;;23.80
19568;BMP280;9930;49.240;8.548;2023-05-23T07:02:35;100589.97;;;23.87
19568;BMP280;9930;49.240;8.548;2023-05-23T07:05:01;100584.78;;;23.86
19568;BMP280;9930;49.240;8.548;2023-05-23T07:07:26;100594.41;;;23.82
19568;BMP280;9930;49.240;8.548;2023-05-23T07:09:54;100597.16;;;23.70
19568;BMP280;9930;49.240;8.548;2023-05-23T07:12:22;100593.91;;;23.51
19568;BMP280;9930;49.240;8.548;2023-05-23T07:14:48;100601.72;;;23.50
19568;BMP280;9930;49.240;8.548;2023-05-23T07:17:13;100610.41;;;23.49
19568;BMP280;9930;49.240;8.548;2023-05-23T07:19:41;100601.75;;;23.48
19568;BMP280;9930;49.240;8.548;2023-05-23T07:22:09;100599.97;;;23.55
19568;BMP280;9930;49.240;8.548;2023-05-23T07:24:35;100603.38;;;23.58
19568;BMP280;9930;49.240;8.548;2023-05-23T07:27:01;100603.22;;;23.71
19568;BMP280;9930;49.240;8.548;2023-05-23T07:29:29;100611.81;;;23.77
19568;BMP280;9930;49.240;8.548;2023-05-23T07:31:58;100610.91;;;23.81
19568;BMP280;9930;49.240;8.548;2023-05-23T07:34:29;100616.09;;;23.83
19568;BMP280;9930;49.240;8.548;2023-05-23T07:36:55;100615.25;;;23.81
19568;BMP280;9930;49.240;8.548;2023-05-23T07:39:23;100617.84;;;23.82
19568;BMP280;9930;49.240;8.548;2023-05-23T07:41:50;100607.41;;;23.84
19568;BMP280;9930;49.240;8.548;2023-05-23T07:44:18;100605.75;;;23.77
19568;BMP280;9930;49.240;8.548;2023-05-23T07:46:47;100608.38;;;23.77
19568;BMP280;9930;49.240;8.548;2023-05-23T07:49:12;100600.59;;;23.72
19568;BMP280;9930;49.240;8.548;2023-05-23T07:51:40;100616.97;;;23.82
19568;BMP280;9930;49.240;8.548;2023-05-23T07:54:06;100619.59;;;23.82
19568;BMP280;9930;49.240;8.548;2023-05-23T07:56:32;100621.31;;;23.83
19568;BMP280;9930;49.240;8.548;2023-05-23T07:58:57;100620.38;;;23.87
19568;BMP280;9930;49.240;8.548;2023-05-23T08:01:28;100622.94;;;23.90
19568;BMP280;9930;49.240;8.548;2023-05-23T08:03:56;100623.81;;;23.90
19568;BMP280;9930;49.240;8.548;2023-05-23T08:06:21;100609.97;;;23.87
19568;BMP280;9930;49.240;8.548;2023-05-23T08:08:47;100619.47;;;23.89
19568;BMP280;9930;49.240;8.548;2023-05-23T08:11:15;100628.91;;;23.98
19568;BMP280;9930;49.240;8.548;2023-05-23T08:13:44;100616.81;;;23.94
19568;BMP280;9930;49.240;8.548;2023-05-23T08:16:12;100630.69;;;23.96
19568;BMP280;9930;49.240;8.548;2023-05-23T08:18:38;100631.56;;;23.95
19568;BMP280;9930;49.240;8.548;2023-05-23T08:21:04;100629.06;;;23.87
19568;BMP280;9930;49.240;8.548;2023-05-23T08:23:32;100623.81;;;23.89
19568;BMP280;9930;49.240;8.548;2023-05-23T08:25:58;100629.91;;;23.88
19568;BMP280;9930;49.240;8.548;2023-05-23T08:28:24;100629.88;;;23.91
19568;BMP280;9930;49.240;8.548;2023-05-23T08:30:52;100628.88;;;24.00
19568;BMP280;9930;49.240;8.548;2023-05-23T08:33:18;100636.56;;;24.10
19568;BMP280;9930;49.240;8.548;2023-05-23T08:35:44;100638.22;;;24.16
19568;BMP280;9930;49.240;8.548;2023-05-23T08:38:09;100628.66;;;24.15
19568;BMP280;9930;49.240;8.548;2023-05-23T08:40:40;100638.13;;;24.20
19568;BMP280;9930;49.240;8.548;2023-05-23T08:43:08;100643.25;;;24.30
19568;BMP280;9930;49.240;8.548;2023-05-23T08:45:39;100638.88;;;24.32
19568;BMP280;9930;49.240;8.548;2023-05-23T08:48:08;100631.84;;;24.37
19568;BMP280;9930;49.240;8.548;2023-05-23T08:50:39;100637.09;;;24.35
19568;BMP280;9930;49.240;8.548;2023-05-23T08:53:09;100637.00;;;24.40
19568;BMP280;9930;49.240;8.548;2023-05-23T08:55:37;100639.53;;;24.44
19568;BMP280;9930;49.240;8.548;2023-05-23T08:58:03;100636.00;;;24.48
19568;BMP280;9930;49.240;8.548;2023-05-23T09:00:29;100624.72;;;24.48
19568;BMP280;9930;49.240;8.548;2023-05-23T09:02:56;100625.47;;;24.54
19568;BMP280;9930;49.240;8.548;2023-05-23T09:05:22;100641.00;;;24.62
19568;BMP280;9930;49.240;8.548;2023-05-23T09:07:48;100622.69;;;24.65
19568;BMP280;9930;49.240;8.548;2023-05-23T09:10:14;100626.03;;;24.73
19568;BMP280;9930;49.240;8.548;2023-05-23T09:12:42;100631.16;;;24.78
19568;BMP280;9930;49.240;8.548;2023-05-23T09:15:11;100641.50;;;24.84
19568;BMP280;9930;49.240;8.548;2023-05-23T09:17:40;100635.44;;;24.82
19568;BMP280;9930;49.240;8.548;2023-05-23T09:20:15;100637.13;;;24.84
19568;BMP280;9930;49.240;8.548;2023-05-23T09:22:49;100652.66;;;24.92
19568;BMP280;9930;49.240;8.548;2023-05-23T09:25:18;100651.72;;;24.96
19568;BMP280;9930;49.240;8.548;2023-05-23T09:27:43;100642.91;;;25.05
19568;BMP280;9930;49.240;8.548;2023-05-23T09:30:12;100628.88;;;25.10
19568;BMP280;9930;49.240;8.548;2023-05-23T09:32:41;100639.16;;;25.18
19568;BMP280;9930;49.240;8.548;2023-05-23T09:35:09;100631.25;;;25.23
19568;BMP280;9930;49.240;8.548;2023-05-23T09:37:44;100638.91;;;25.32
19568;BMP280;9930;49.240;8.548;2023-05-23T09:40:16;100643.91;;;25.44
19568;BMP280;9930;49.240;8.548;2023-05-23T09:42:45;100637.75;;;25.46
19568;BMP280;9930;49.240;8.548;2023-05-23T09:45:15;100653.09;;;25.63
19568;BMP280;9930;49.240;8.548;2023-05-23T09:47:51;100646.81;;;25.73
19568;BMP280;9930;49.240;8.548;2023-05-23T09:50:18;100638.97;;;25.73
19568;BMP280;9930;49.240;8.548;2023-05-23T09:52:44;100654.56;;;25.78
19568;BMP280;9930;49.240;8.548;2023-05-23T09:55:13;100651.88;;;25.81
19568;BMP280;9930;49.240;8.548;2023-05-23T09:57:42;100642.31;;;25.80
19568;BMP280;9930;49.240;8.548;2023-05-23T10:00:14;100649.13;;;25.87
19568;BMP280;9930;49.240;8.548;2023-05-23T10:03:12;100653.59;;;25.82
19568;BMP280;9930;49.240;8.548;2023-05-23T10:05:56;100643.28;;;25.76
19568;BMP280;9930;49.240;8.548;2023-05-23T10:08:29;100646.72;;;25.78
19568;BMP280;9930;49.240;8.548;2023-05-23T10:13:33;100650.28;;;25.74
19568;BMP280;9930;49.240;8.548;2023-05-23T10:18:38;100648.38;;;25.82
19568;BMP280;9930;49.240;8.548;2023-05-23T10:21:11;100637.88;;;25.84
19568;BMP280;9930;49.240;8.548;2023-05-23T10:23:41;100636.94;;;25.86
19568;BMP280;9930;49.240;8.548;2023-05-23T10:26:07;100636.75;;;25.95
19568;BMP280;9930;49.240;8.548;2023-05-23T10:28:33;100640.78;;;26.08
19568;BMP280;9930;49.240;8.548;2023-05-23T10:31:04;100645.84;;;26.16
19568;BMP280;9930;49.240;8.548;2023-05-23T10:33:40;100630.09;;;26.18
19568;BMP280;9930;49.240;8.548;2023-05-23T10:36:18;100645.59;;;26.27
19568;BMP280;9930;49.240;8.548;2023-05-23T10:39:03;100637.78;;;26.25
19568;BMP280;9930;49.240;8.548;2023-05-23T10:41:44;100648.22;;;26.25
19568;BMP280;9930;49.240;8.548;2023-05-23T10:44:30;100644.06;;;26.17
19568;BMP280;9930;49.240;8.548;2023-05-23T10:47:00;100652.06;;;26.10
19568;BMP280;9930;49.240;8.548;2023-05-23T10:52:08;100646.47;;;26.26
19568;BMP280;9930;49.240;8.548;2023-05-23T10:54:54;100643.50;;;26.42
19568;BMP280;9930;49.240;8.548;2023-05-23T10:57:25;100629.19;;;26.57
19568;BMP280;9930;49.240;8.548;2023-05-23T10:59:55;100630.63;;;26.69
19568;BMP280;9930;49.240;8.548;2023-05-23T11:02:30;100632.25;;;26.74
19568;BMP280;9930;49.240;8.548;2023-05-23T11:05:31;100628.88;;;26.69
19568;BMP280;9930;49.240;8.548;2023-05-23T11:11:00;100653.22;;;26.73
19568;BMP280;9930;49.240;8.548;2023-05-23T11:16:34;100635.63;;;26.44
19568;BMP280;9930;49.240;8.548;2023-05-23T11:22:00;100642.94;;;26.28
19568;BMP280;9930;49.240;8.548;2023-05-23T11:24:49;100651.06;;;26.16
19568;BMP280;9930;49.240;8.548;2023-05-23T11:27:39;100644.34;;;26.04
19568;BMP280;9930;49.240;8.548;2023-05-23T11:30:16;100656.50;;;26.07
19568;BMP280;9930;49.240;8.548;2023-05-23T11:32:53;100659.13;;;26.07
19568;BMP280;9930;49.240;8.548;2023-05-23T11:35:24;100665.28;;;26.04
19568;BMP280;9930;49.240;8.548;2023-05-23T11:37:51;100664.41;;;26.04
19568;BMP280;9930;49.240;8.548;2023-05-23T11:40:44;100654.09;;;25.99
19568;BMP280;9930;49.240;8.548;2023-05-23T11:43:13;100660.97;;;26.02
19568;BMP280;9930;49.240;8.548;2023-05-23T11:45:40;100658.34;;;26.02
19568;BMP280;9930;49.240;8.548;2023-05-23T11:48:11;100659.94;;;26.09
19568;BMP280;9930;49.240;8.548;2023-05-23T11:50:49;100657.13;;;26.18
19568;BMP280;9930;49.240;8.548;2023-05-23T11:53:16;100642.19;;;26.23
19568;BMP280;9930;49.240;8.548;2023-05-23T11:58:21;100648.78;;;26.41
19568;BMP280;9930;49.240;8.548;2023-05-23T12:00:57;100643.50;;;26.42
19568;BMP280;9930;49.240;8.548;2023-05-23T12:03:26;100637.41;;;26.42
19568;BMP280;9930;49.240;8.548;2023-05-23T12:05:54;100630.28;;;26.49
19568;BMP280;9930;49.240;8.548;2023-05-23T12:08:20;100639.72;;;26.54
19568;BMP280;9930;49.240;8.548;2023-05-23T12:11:14;100645.81;;;26.55
19568;BMP280;9930;49.240;8.548;2023-05-23T12:13:41;100650.94;;;26.59
19568;BMP280;9930;49.240;8.548;2023-05-23T12:16:07;100634.47;;;26.56
19568;BMP280;9930;49.240;8.548;2023-05-23T12:18:33;100649.03;;;26.66
19568;BMP280;9930;49.240;8.548;2023-05-23T12:21:05;100628.13;;;26.64
19568;BMP280;9930;49.240;8.548;2023-05-23T12:23:33;100633.19;;;26.72
19568;BMP280;9930;49.240;8.548;2023-05-23T12:26:05;100615.75;;;26.71
19568;BMP280;9930;49.240;8.548;2023-05-23T12:28:41;100646.03;;;26.81
19568;BMP280;9930;49.240;8.548;2023-05-23T12:31:19;100621.00;;;26.71
19568;BMP280;9930;49.240;8.548;2023-05-23T12:33:51;100652.97;;;26.82
19568;BMP280;9930;49.240;8.548;2023-05-23T12:36:24;100629.47;;;26.81
19568;BMP280;9930;49.240;8.548;2023-05-23T12:38:53;100641.28;;;26.95
19568;BMP280;9930;49.240;8.548;2023-05-23T12:41:19;100637.78;;;26.98
19568;BMP280;9930;49.240;8.548;2023-05-23T12:43:54;100618.72;;;26.91
19568;BMP280;9930;49.240;8.548;2023-05-23T12:46:25;100623.84;;;26.96
19568;BMP280;9930;49.240;8.548;2023-05-23T12:48:52;100629.66;;;27.07
19568;BMP280;9930;49.240;8.548;2023-05-23T12:51:21;100638.31;;;27.10
19568;BMP280;9930;49.240;8.548;2023-05-23T12:53:49;100642.84;;;27.04
19568;BMP280;9930;49.240;8.548;2023-05-23T12:56:15;100629.22;;;26.90
19568;BMP280;9930;49.240;8.548;2023-05-23T12:58:40;100630.31;;;26.81
19568;BMP280;9930;49.240;8.548;2023-05-23T13:01:06;100626.09;;;26.75
19568;BMP280;9930;49.240;8.548;2023-05-23T13:03:32;100628.81;;;26.72
19568;BMP280;9930;49.240;8.548;2023-05-23T13:05:58;100634.81;;;26.76
19568;BMP280;9930;49.240;8.548;2023-05-23T13:08:25;100632.19;;;26.76
19568;BMP280;9930;49.240;8.548;2023-05-23T13:10:55;100637.16;;;26.87
19568;BMP280;9930;49.240;8.548;2023-05-23T13:13:24;100624.03;;;26.88
19568;BMP280;9930;49.240;8.548;2023-05-23T13:15:51;100630.09;;;26.90
19568;BMP280;9930;49.240;8.548;2023-05-23T13:18:16;100619.78;;;26.84
19568;BMP280;9930;49.240;8.548;2023-05-23T13:20:42;100613.81;;;26.79
19568;BMP280;9930;49.240;8.548;2023-05-23T13:23:08;100622.63;;;26.75
19568;BMP280;9930;49.240;8.548;2023-05-23T13:25:34;100616.53;;;26.74
19568;BMP280;9930;49.240;8.548;2023-05-23T13:28:01;100613.97;;;26.73
19568;BMP280;9930;49.240;8.548;2023-05-23T13:30:31;100611.53;;;26.65
19568;BMP280;9930;49.240;8.548;2023-05-23T13:33:05;100614.03;;;26.70
19568;BMP280;9930;49.240;8.548;2023-05-23T13:35:33;100624.22;;;26.81
19568;BMP280;9930;49.240;8.548;2023-05-23T13:38:01;100612.75;;;26.86
19568;BMP280;9930;49.240;8.548;2023-05-23T13:40:26;100607.50;;;26.86
19568;BMP280;9930;49.240;8.548;2023-05-23T13:42:54;100591.00;;;26.84
19568;BMP280;9930;49.240;8.548;2023-05-23T13:45:22;100601.91;;;27.01
19568;BMP280;9930;49.240;8.548;2023-05-23T13:47:48;100606.06;;;27.08
19568;BMP280;9930;49.240;8.548;2023-05-23T13:50:14;100613.91;;;27.08
19568;BMP280;9930;49.240;8.548;2023-05-23T13:52:42;100613.03;;;27.09
19568;BMP280;9930;49.240;8.548;2023-05-23T13:55:08;100618.44;;;27.03
19568;BMP280;9930;49.240;8.548;2023-05-23T13:57:34;100620.88;;;27.09
19568;BMP280;9930;49.240;8.548;2023-05-23T14:00:08;100620.84;;;27.11
19568;BMP280;9930;49.240;8.548;2023-05-23T14:02:36;100618.25;;;27.09
19568;BMP280;9930;49.240;8.548;2023-05-23T14:05:05;100613.88;;;27.10
19568;BMP280;9930;49.240;8.548;2023-05-23T14:07:33;100614.69;;;27.12
19568;BMP280;9930;49.240;8.548;2023-05-23T14:10:01;100604.22;;;27.12
19568;BMP280;9930;49.240;8.548;2023-05-23T14:12:35;100599.72;;;27.17
19568;BMP280;9930;49.240;8.548;2023-05-23T14:15:02;100617.78;;;27.26
19568;BMP280;9930;49.240;8.548;2023-05-23T14:17:31;100623.84;;;27.28
19568;BMP280;9930;49.240;8.548;2023-05-23T14:19:59;100627.41;;;27.26
19568;BMP280;9930;49.240;8.548;2023-05-23T14:22:24;100615.50;;;27.14
19568;BMP280;9930;49.240;8.548;2023-05-23T14:24:53;100614.56;;;27.17
19568;BMP280;9930;49.240;8.548;2023-05-23T14:27:18;100612.91;;;27.14
19568;BMP280;9930;49.240;8.548;2023-05-23T14:29:44;100603.66;;;27.01
19568;BMP280;9930;49.240;8.548;2023-05-23T14:32:11;100607.34;;;26.92
19568;BMP280;9930;49.240;8.548;2023-05-23T14:34:37;100618.88;;;26.85
19568;BMP280;9930;49.240;8.548;2023-05-23T14:37:10;100629.44;;;26.82
19568;BMP280;9930;49.240;8.548;2023-05-23T14:39:39;100628.69;;;26.77
19568;BMP280;9930;49.240;8.548;2023-05-23T14:42:04;100622.66;;;26.73
19568;BMP280;9930;49.240;8.548;2023-05-23T14:44:32;100628.56;;;26.82
19568;BMP280;9930;49.240;8.548;2023-05-23T14:46:57;100634.34;;;26.94